sensor_id;sensor_type;location;lat;lon;timestamp;P1;durP1;ratioP1;P2;durP2;ratioP2
13032;SDS011;6583;42.632;23.298;2022-07-05T00:00:02;4.47;;;4.07;;
13032;SDS011;6583;42.632;23.298;2022-07-05T00:02:30;4.63;;;4.22;;
13032;SDS011;6583;42.632;23.298;2022-07-05T00:04:57;4.78;;;4.35;;
13032;SDS011;6583;42.632;23.298;2022-07-05T00:07:24;4.05;;;3.75;;
13032;SDS011;6583;42.632;23.298;2022-07-05T00:09:52;5.00;;;4.60;;
13032;SDS011;6583;42.632;23.298;2022-07-05T00:12:21;5.05;;;4.60;;
13032;SDS011;6583;42.632;23.298;2022-07-05T00:14:49;7.25;;;4.30;;
13032;SDS011;6583;42.632;23.298;2022-07-05T00:17:16;4.60;;;4.20;;
13032;SDS011;6583;42.632;23.298;2022-07-05T00:19:43;6.50;;;4.55;;
13032;SDS011;6583;42.632;23.298;2022-07-05T00:22:10;4.53;;;4.22;;
13032;SDS011;6583;42.632;23.298;2022-07-05T00:24:37;4.65;;;4.22;;
13032;SDS011;6583;42.632;23.298;2022-07-05T00:27:05;5.05;;;4.57;;
13032;SDS011;6583;42.632;23.298;2022-07-05T00:29:31;4.35;;;3.95;;
13032;SDS011;6583;42.632;23.298;2022-07-05T00:31:58;4.68;;;4.22;;
13032;SDS011;6583;42.632;23.298;2022-07-05T00:34:25;4.45;;;4.05;;
13032;SDS011;6583;42.632;23.298;2022-07-05T00:36:52;4.85;;;4.45;;
13032;SDS011;6583;42.632;23.298;2022-07-05T00:39:18;4.93;;;4.40;;
13032;SDS011;6583;42.632;23.298;2022-07-05T00:41:45;4.95;;;4.50;;
13032;SDS011;6583;42.632;23.298;2022-07-05T00:44:13;4.65;;;4.25;;
13032;SDS011;6583;42.632;23.298;2022-07-05T00:46:43;4.95;;;4.18;;
13032;SDS011;6583;42.632;23.298;2022-07-05T00:49:10;4.90;;;4.50;;
13032;SDS011;6583;42.632;23.298;2022-07-05T00:51:37;4.97;;;4.57;;
13032;SDS011;6583;42.632;23.298;2022-07-05T00:54:06;5.70;;;4.10;;
13032;SDS011;6583;42.632;23.298;2022-07-05T00:56:33;4.82;;;4.30;;
13032;SDS011;6583;42.632;23.298;2022-07-05T00:59:00;4.85;;;4.32;;
13032;SDS011;6583;42.632;23.298;2022-07-05T01:01:28;4.60;;;4.20;;
13032;SDS011;6583;42.632;23.298;2022-07-05T01:03:55;4.68;;;4.28;;
13032;SDS011;6583;42.632;23.298;2022-07-05T01:06:22;5.15;;;3.90;;
13032;SDS011;6583;42.632;23.298;2022-07-05T01:08:49;4.85;;;4.40;;
13032;SDS011;6583;42.632;23.298;2022-07-05T01:11:16;5.78;;;4.30;;
13032;SDS011;6583;42.632;23.298;2022-07-05T01:13:43;4.70;;;4.30;;
13032;SDS011;6583;42.632;23.298;2022-07-05T01:16:09;4.93;;;4.45;;
13032;SDS011;6583;42.632;23.298;2022-07-05T01:18:38;6.25;;;4.85;;
13032;SDS011;6583;42.632;23.298;2022-07-05T01:21:05;5.05;;;4.55;;
13032;SDS011;6583;42.632;23.298;2022-07-05T01:23:33;4.88;;;4.47;;
13032;SDS011;6583;42.632;23.298;2022-07-05T01:26:00;5.35;;;4.85;;
13032;SDS011;6583;42.632;23.298;2022-07-05T01:28:27;5.53;;;4.32;;
13032;SDS011;6583;42.632;23.298;2022-07-05T01:30:55;5.03;;;4.63;;
13032;SDS011;6583;42.632;23.298;2022-07-05T01:33:26;4.63;;;4.20;;
13032;SDS011;6583;42.632;23.298;2022-07-05T01:35:54;5.32;;;4.90;;
13032;SDS011;6583;42.632;23.298;2022-07-05T01:38:21;5.32;;;4.93;;
13032;SDS011;6583;42.632;23.298;2022-07-05T01:40:49;5.53;;;4.30;;
13032;SDS011;6583;42.632;23.298;2022-07-05T01:43:17;5.20;;;4.40;;
13032;SDS011;6583;42.632;23.298;2022-07-05T01:45:44;5.00;;;4.53;;
13032;SDS011;6583;42.632;23.298;2022-07-05T01:48:12;5.20;;;4.70;;
13032;SDS011;6583;42.632;23.298;2022-07-05T01:50:45;4.82;;;4.43;;
13032;SDS011;6583;42.632;23.298;2022-07-05T01:53:14;6.25;;;5.10;;
13032;SDS011;6583;42.632;23.298;2022-07-05T01:55:44;5.18;;;4.68;;
13032;SDS011;6583;42.632;23.298;2022-07-05T01:58:12;6.82;;;4.90;;
13032;SDS011;6583;42.632;23.298;2022-07-05T02:00:43;5.68;;;4.47;;
13032;SDS011;6583;42.632;23.298;2022-07-05T02:03:11;6.95;;;4.95;;
13032;SDS011;6583;42.632;23.298;2022-07-05T02:05:38;5.60;;;5.10;;
13032;SDS011;6583;42.632;23.298;2022-07-05T02:08:05;6.03;;;5.10;;
13032;SDS011;6583;42.632;23.298;2022-07-05T02:10:33;5.43;;;4.93;;
13032;SDS011;6583;42.632;23.298;2022-07-05T02:13:00;6.53;;;5.00;;
13032;SDS011;6583;42.632;23.298;2022-07-05T02:15:30;5.45;;;4.95;;
13032;SDS011;6583;42.632;23.298;2022-07-05T02:17:58;5.80;;;5.22;;
13032;SDS011;6583;42.632;23.298;2022-07-05T02:20:25;5.60;;;5.10;;
13032;SDS011;6583;42.632;23.298;2022-07-05T02:22:51;5.70;;;5.10;;
13032;SDS011;6583;42.632;23.298;2022-07-05T02:25:18;5.70;;;5.20;;
13032;SDS011;6583;42.632;23.298;2022-07-05T02:27:45;6.82;;;5.22;;
13032;SDS011;6583;42.632;23.298;2022-07-05T02:30:12;5.57;;;5.10;;
13032;SDS011;6583;42.632;23.298;2022-07-05T02:32:40;6.13;;;5.63;;
13032;SDS011;6583;42.632;23.298;2022-07-05T02:35:08;6.25;;;5.68;;
13032;SDS011;6583;42.632;23.298;2022-07-05T02:37:36;5.90;;;5.40;;
13032;SDS011;6583;42.632;23.298;2022-07-05T02:40:05;6.63;;;5.35;;
13032;SDS011;6583;42.632;23.298;2022-07-05T02:42:32;6.13;;;5.53;;
13032;SDS011;6583;42.632;23.298;2022-07-05T02:44:59;6.90;;;5.75;;
13032;SDS011;6583;42.632;23.298;2022-07-05T02:47:28;6.13;;;5.40;;
13032;SDS011;6583;42.632;23.298;2022-07-05T02:49:57;5.47;;;5.05;;
13032;SDS011;6583;42.632;23.298;2022-07-05T02:52:23;6.20;;;5.60;;
13032;SDS011;6583;42.632;23.298;2022-07-05T02:54:50;7.88;;;6.28;;
13032;SDS011;6583;42.632;23.298;2022-07-05T02:57:17;6.35;;;5.55;;
13032;SDS011;6583;42.632;23.298;2022-07-05T02:59:44;6.50;;;5.88;;
13032;SDS011;6583;42.632;23.298;2022-07-05T03:02:10;6.50;;;5.90;;
13032;SDS011;6583;42.632;23.298;2022-07-05T03:04:37;5.88;;;5.38;;
13032;SDS011;6583;42.632;23.298;2022-07-05T03:07:05;7.25;;;6.00;;
13032;SDS011;6583;42.632;23.298;2022-07-05T03:09:31;6.78;;;5.90;;
13032;SDS011;6583;42.632;23.298;2022-07-05T03:11:58;6.40;;;5.78;;
13032;SDS011;6583;42.632;23.298;2022-07-05T03:14:25;6.10;;;5.50;;
13032;SDS011;6583;42.632;23.298;2022-07-05T03:16:51;6.65;;;6.03;;
13032;SDS011;6583;42.632;23.298;2022-07-05T03:19:18;6.25;;;5.35;;
13032;SDS011;6583;42.632;23.298;2022-07-05T03:21:45;10.68;;;6.00;;
13032;SDS011;6583;42.632;23.298;2022-07-05T03:24:13;6.55;;;6.03;;
13032;SDS011;6583;42.632;23.298;2022-07-05T03:26:39;6.28;;;5.28;;
13032;SDS011;6583;42.632;23.298;2022-07-05T03:29:07;6.10;;;5.43;;
13032;SDS011;6583;42.632;23.298;2022-07-05T03:31:34;5.88;;;5.38;;
13032;SDS011;6583;42.632;23.298;2022-07-05T03:34:00;6.03;;;5.53;;
13032;SDS011;6583;42.632;23.298;2022-07-05T03:36:27;6.05;;;5.45;;
13032;SDS011;6583;42.632;23.298;2022-07-05T03:38:54;5.88;;;5.28;;
13032;SDS011;6583;42.632;23.298;2022-07-05T03:41:22;6.07;;;5.43;;
13032;SDS011;6583;42.632;23.298;2022-07-05T03:43:48;6.05;;;5.45;;
13032;SDS011;6583;42.632;23.298;2022-07-05T03:46:15;6.22;;;5.63;;
13032;SDS011;6583;42.632;23.298;2022-07-05T03:48:42;5.65;;;5.15;;
13032;SDS011;6583;42.632;23.298;2022-07-05T03:51:08;5.95;;;5.35;;
13032;SDS011;6583;42.632;23.298;2022-07-05T03:53:35;6.38;;;5.70;;
13032;SDS011;6583;42.632;23.298;2022-07-05T03:56:02;7.53;;;5.53;;
13032;SDS011;6583;42.632;23.298;2022-07-05T03:58:30;5.65;;;5.15;;
13032;SDS011;6583;42.632;23.298;2022-07-05T04:00:56;6.25;;;5.65;;
13032;SDS011;6583;42.632;23.298;2022-07-05T04:03:23;5.63;;;5.13;;
13032;SDS011;6583;42.632;23.298;2022-07-05T04:05:50;6.05;;;5.25;;
13032;SDS011;6583;42.632;23.298;2022-07-05T04:08:16;6.50;;;5.05;;
13032;SDS011;6583;42.632;23.298;2022-07-05T04:10:43;6.03;;;5.47;;
13032;SDS011;6583;42.632;23.298;2022-07-05T04:13:10;5.65;;;5.15;;
13032;SDS011;6583;42.632;23.298;2022-07-05T04:15:38;7.25;;;5.18;;
13032;SDS011;6583;42.632;23.298;2022-07-05T04:18:04;5.75;;;5.22;;
13032;SDS011;6583;42.632;23.298;2022-07-05T04:20:31;6.78;;;5.10;;
13032;SDS011;6583;42.632;23.298;2022-07-05T04:22:58;5.68;;;5.03;;
13032;SDS011;6583;42.632;23.298;2022-07-05T04:25:25;5.43;;;4.93;;
13032;SDS011;6583;42.632;23.298;2022-07-05T04:27:52;6.03;;;5.30;;
13032;SDS011;6583;42.632;23.298;2022-07-05T04:30:21;5.68;;;4.72;;
13032;SDS011;6583;42.632;23.298;2022-07-05T04:32:50;7.32;;;5.10;;
13032;SDS011;6583;42.632;23.298;2022-07-05T04:35:17;7.78;;;4.95;;
13032;SDS011;6583;42.632;23.298;2022-07-05T04:37:44;6.78;;;4.70;;
13032;SDS011;6583;42.632;23.298;2022-07-05T04:40:12;13.35;;;5.60;;
13032;SDS011;6583;42.632;23.298;2022-07-05T04:42:39;9.80;;;4.55;;
13032;SDS011;6583;42.632;23.298;2022-07-05T04:45:06;4.93;;;4.40;;
13032;SDS011;6583;42.632;23.298;2022-07-05T04:47:34;4.65;;;4.07;;
13032;SDS011;6583;42.632;23.298;2022-07-05T04:50:02;5.03;;;4.20;;
13032;SDS011;6583;42.632;23.298;2022-07-05T04:52:31;7.53;;;4.10;;
13032;SDS011;6583;42.632;23.298;2022-07-05T04:54:57;7.32;;;4.40;;
13032;SDS011;6583;42.632;23.298;2022-07-05T04:57:24;4.82;;;4.43;;
13032;SDS011;6583;42.632;23.298;2022-07-05T04:59:51;5.72;;;4.47;;
13032;SDS011;6583;42.632;23.298;2022-07-05T05:02:17;4.72;;;4.20;;
13032;SDS011;6583;42.632;23.298;2022-07-05T05:04:44;6.15;;;4.05;;
13032;SDS011;6583;42.632;23.298;2022-07-05T05:07:12;4.57;;;4.18;;
13032;SDS011;6583;42.632;23.298;2022-07-05T05:09:39;5.90;;;4.28;;
13032;SDS011;6583;42.632;23.298;2022-07-05T05:12:06;4.90;;;4.47;;
13032;SDS011;6583;42.632;23.298;2022-07-05T05:14:33;5.18;;;4.40;;
13032;SDS011;6583;42.632;23.298;2022-07-05T05:16:59;7.97;;;4.93;;
13032;SDS011;6583;42.632;23.298;2022-07-05T05:19:26;8.55;;;4.70;;
13032;SDS011;6583;42.632;23.298;2022-07-05T05:21:53;7.38;;;4.85;;
13032;SDS011;6583;42.632;23.298;2022-07-05T05:24:21;5.90;;;5.18;;
13032;SDS011;6583;42.632;23.298;2022-07-05T05:26:47;5.28;;;4.68;;
13032;SDS011;6583;42.632;23.298;2022-07-05T05:29:14;5.47;;;4.88;;
13032;SDS011;6583;42.632;23.298;2022-07-05T05:31:41;7.18;;;5.00;;
13032;SDS011;6583;42.632;23.298;2022-07-05T05:34:07;5.57;;;5.07;;
13032;SDS011;6583;42.632;23.298;2022-07-05T05:36:34;8.18;;;5.10;;
13032;SDS011;6583;42.632;23.298;2022-07-05T05:39:01;6.78;;;4.88;;
13032;SDS011;6583;42.632;23.298;2022-07-05T05:41:29;7.82;;;5.50;;
13032;SDS011;6583;42.632;23.298;2022-07-05T05:43:56;5.25;;;4.75;;
13032;SDS011;6583;42.632;23.298;2022-07-05T05:46:23;7.00;;;5.65;;
13032;SDS011;6583;42.632;23.298;2022-07-05T05:48:49;5.65;;;5.13;;
13032;SDS011;6583;42.632;23.298;2022-07-05T05:51:16;7.60;;;5.70;;
13032;SDS011;6583;42.632;23.298;2022-07-05T05:53:43;5.65;;;5.15;;
13032;SDS011;6583;42.632;23.298;2022-07-05T05:56:10;6.45;;;5.20;;
13032;SDS011;6583;42.632;23.298;2022-07-05T05:58:39;7.07;;;5.38;;
13032;SDS011;6583;42.632;23.298;2022-07-05T06:01:05;7.00;;;5.00;;
13032;SDS011;6583;42.632;23.298;2022-07-05T06:03:32;6.03;;;4.93;;
13032;SDS011;6583;42.632;23.298;2022-07-05T06:05:59;8.73;;;5.22;;
13032;SDS011;6583;42.632;23.298;2022-07-05T06:08:25;5.80;;;5.20;;
13032;SDS011;6583;42.632;23.298;2022-07-05T06:10:52;5.47;;;4.65;;
13032;SDS011;6583;42.632;23.298;2022-07-05T06:13:19;5.47;;;4.88;;
13032;SDS011;6583;42.632;23.298;2022-07-05T06:15:47;8.93;;;4.93;;
13032;SDS011;6583;42.632;23.298;2022-07-05T06:18:13;8.70;;;5.30;;
13032;SDS011;6583;42.632;23.298;2022-07-05T06:20:40;8.60;;;5.75;;
13032;SDS011;6583;42.632;23.298;2022-07-05T06:23:07;7.07;;;5.18;;
13032;SDS011;6583;42.632;23.298;2022-07-05T06:25:34;5.18;;;4.35;;
13032;SDS011;6583;42.632;23.298;2022-07-05T06:28:02;5.25;;;4.75;;
13032;SDS011;6583;42.632;23.298;2022-07-05T06:30:31;5.30;;;4.80;;
13032;SDS011;6583;42.632;23.298;2022-07-05T06:33:00;8.35;;;5.00;;
13032;SDS011;6583;42.632;23.298;2022-07-05T06:35:27;5.70;;;4.95;;
13032;SDS011;6583;42.632;23.298;2022-07-05T06:37:55;6.85;;;4.90;;
13032;SDS011;6583;42.632;23.298;2022-07-05T06:40:25;5.78;;;5.22;;
13032;SDS011;6583;42.632;23.298;2022-07-05T06:42:54;5.43;;;4.93;;
13032;SDS011;6583;42.632;23.298;2022-07-05T06:45:22;6.28;;;5.40;;
13032;SDS011;6583;42.632;23.298;2022-07-05T06:47:55;8.63;;;5.30;;
13032;SDS011;6583;42.632;23.298;2022-07-05T06:50:24;6.13;;;4.65;;
13032;SDS011;6583;42.632;23.298;2022-07-05T06:52:52;6.35;;;4.82;;
13032;SDS011;6583;42.632;23.298;2022-07-05T06:55:19;7.65;;;4.88;;
13032;SDS011;6583;42.632;23.298;2022-07-05T06:57:45;8.35;;;5.07;;
13032;SDS011;6583;42.632;23.298;2022-07-05T07:00:13;7.43;;;5.20;;
13032;SDS011;6583;42.632;23.298;2022-07-05T07:02:40;5.20;;;4.68;;
13032;SDS011;6583;42.632;23.298;2022-07-05T07:05:07;6.50;;;4.97;;
13032;SDS011;6583;42.632;23.298;2022-07-05T07:07:35;5.50;;;5.00;;
13032;SDS011;6583;42.632;23.298;2022-07-05T07:10:19;7.93;;;5.50;;
13032;SDS011;6583;42.632;23.298;2022-07-05T07:12:46;6.28;;;4.63;;
13032;SDS011;6583;42.632;23.298;2022-07-05T07:15:13;5.40;;;4.85;;
13032;SDS011;6583;42.632;23.298;2022-07-05T07:17:40;5.53;;;4.97;;
13032;SDS011;6583;42.632;23.298;2022-07-05T07:20:06;6.10;;;5.40;;
13032;SDS011;6583;42.632;23.298;2022-07-05T07:22:35;6.95;;;4.93;;
13032;SDS011;6583;42.632;23.298;2022-07-05T07:25:02;6.82;;;5.53;;
13032;SDS011;6583;42.632;23.298;2022-07-05T07:27:30;7.53;;;5.90;;
13032;SDS011;6583;42.632;23.298;2022-07-05T07:29:57;5.60;;;5.00;;
13032;SDS011;6583;42.632;23.298;2022-07-05T07:32:24;8.30;;;5.57;;
13032;SDS011;6583;42.632;23.298;2022-07-05T07:34:50;7.18;;;5.75;;
13032;SDS011;6583;42.632;23.298;2022-07-05T07:37:17;6.25;;;5.45;;
13032;SDS011;6583;42.632;23.298;2022-07-05T07:39:45;7.07;;;5.60;;
13032;SDS011;6583;42.632;23.298;2022-07-05T07:42:12;8.50;;;5.97;;
13032;SDS011;6583;42.632;23.298;2022-07-05T07:44:38;6.95;;;6.07;;
13032;SDS011;6583;42.632;23.298;2022-07-05T07:47:05;6.68;;;5.95;;
13032;SDS011;6583;42.632;23.298;2022-07-05T07:49:32;6.70;;;6.07;;
13032;SDS011;6583;42.632;23.298;2022-07-05T07:51:58;7.35;;;5.57;;
13032;SDS011;6583;42.632;23.298;2022-07-05T07:54:25;6.90;;;5.55;;
13032;SDS011;6583;42.632;23.298;2022-07-05T07:56:53;6.47;;;5.78;;
13032;SDS011;6583;42.632;23.298;2022-07-05T07:59:20;7.30;;;6.00;;
13032;SDS011;6583;42.632;23.298;2022-07-05T08:01:46;11.80;;;6.45;;
13032;SDS011;6583;42.632;23.298;2022-07-05T08:04:13;7.30;;;6.00;;
13032;SDS011;6583;42.632;23.298;2022-07-05T08:06:40;6.82;;;5.45;;
13032;SDS011;6583;42.632;23.298;2022-07-05T08:09:07;7.57;;;5.70;;
13032;SDS011;6583;42.632;23.298;2022-07-05T08:11:33;7.00;;;6.28;;
13032;SDS011;6583;42.632;23.298;2022-07-05T08:14:01;8.95;;;6.30;;
13032;SDS011;6583;42.632;23.298;2022-07-05T08:16:28;9.18;;;6.28;;
13032;SDS011;6583;42.632;23.298;2022-07-05T08:18:55;7.55;;;6.05;;
13032;SDS011;6583;42.632;23.298;2022-07-05T08:21:39;6.72;;;6.20;;
13032;SDS011;6583;42.632;23.298;2022-07-05T08:24:06;7.13;;;5.82;;
13032;SDS011;6583;42.632;23.298;2022-07-05T08:26:35;7.65;;;5.70;;
13032;SDS011;6583;42.632;23.298;2022-07-05T08:29:04;8.02;;;6.00;;
13032;SDS011;6583;42.632;23.298;2022-07-05T08:31:34;6.97;;;6.28;;
13032;SDS011;6583;42.632;23.298;2022-07-05T08:34:02;7.15;;;6.22;;
13032;SDS011;6583;42.632;23.298;2022-07-05T08:36:30;9.10;;;6.15;;
13032;SDS011;6583;42.632;23.298;2022-07-05T08:38:56;6.80;;;6.10;;
13032;SDS011;6583;42.632;23.298;2022-07-05T08:41:23;6.85;;;5.97;;
13032;SDS011;6583;42.632;23.298;2022-07-05T08:43:50;7.18;;;6.57;;
13032;SDS011;6583;42.632;23.298;2022-07-05T08:46:19;6.13;;;5.53;;
13032;SDS011;6583;42.632;23.298;2022-07-05T08:48:47;7.60;;;6.30;;
13032;SDS011;6583;42.632;23.298;2022-07-05T08:51:15;7.70;;;6.15;;
13032;SDS011;6583;42.632;23.298;2022-07-05T08:53:43;7.97;;;6.28;;
13032;SDS011;6583;42.632;23.298;2022-07-05T09:14:34;8.63;;;6.63;;
13032;SDS011;6583;42.632;23.298;2022-07-05T09:17:01;9.82;;;6.60;;
13032;SDS011;6583;42.632;23.298;2022-07-05T09:19:28;7.40;;;6.40;;
13032;SDS011;6583;42.632;23.298;2022-07-05T09:22:05;11.25;;;7.68;;
13032;SDS011;6583;42.632;23.298;2022-07-05T09:24:42;6.75;;;6.03;;
13032;SDS011;6583;42.632;23.298;2022-07-05T09:27:09;6.68;;;5.85;;
13032;SDS011;6583;42.632;23.298;2022-07-05T09:29:37;6.80;;;6.22;;
13032;SDS011;6583;42.632;23.298;2022-07-05T09:32:04;8.15;;;6.47;;
13032;SDS011;6583;42.632;23.298;2022-07-05T09:34:31;7.43;;;6.22;;
13032;SDS011;6583;42.632;23.298;2022-07-05T09:37:01;7.10;;;6.25;;
13032;SDS011;6583;42.632;23.298;2022-07-05T09:39:36;8.60;;;6.13;;
13032;SDS011;6583;42.632;23.298;2022-07-05T09:42:10;7.43;;;6.40;;
13032;SDS011;6583;42.632;23.298;2022-07-05T09:44:42;7.18;;;6.30;;
13032;SDS011;6583;42.632;23.298;2022-07-05T09:47:10;7.72;;;6.28;;
13032;SDS011;6583;42.632;23.298;2022-07-05T09:49:38;7.13;;;5.90;;
13032;SDS011;6583;42.632;23.298;2022-07-05T09:52:07;7.53;;;6.28;;
13032;SDS011;6583;42.632;23.298;2022-07-05T09:54:34;6.90;;;6.05;;
13032;SDS011;6583;42.632;23.298;2022-07-05T09:57:00;6.65;;;6.05;;
13032;SDS011;6583;42.632;23.298;2022-07-05T09:59:27;6.68;;;6.07;;
13032;SDS011;6583;42.632;23.298;2022-07-05T10:01:55;6.80;;;6.25;;
13032;SDS011;6583;42.632;23.298;2022-07-05T10:04:22;6.10;;;5.60;;
13032;SDS011;6583;42.632;23.298;2022-07-05T10:06:49;6.18;;;5.57;;
13032;SDS011;6583;42.632;23.298;2022-07-05T10:09:15;6.88;;;6.28;;
13032;SDS011;6583;42.632;23.298;2022-07-05T10:11:44;6.30;;;5.80;;
13032;SDS011;6583;42.632;23.298;2022-07-05T10:14:13;6.93;;;6.25;;
13032;SDS011;6583;42.632;23.298;2022-07-05T10:16:45;8.35;;;6.38;;
13032;SDS011;6583;42.632;23.298;2022-07-05T10:19:17;7.53;;;6.05;;
13032;SDS011;6583;42.632;23.298;2022-07-05T10:21:46;6.90;;;6.28;;
13032;SDS011;6583;42.632;23.298;2022-07-05T10:24:13;7.82;;;6.45;;
13032;SDS011;6583;42.632;23.298;2022-07-05T10:26:42;6.82;;;6.10;;
13032;SDS011;6583;42.632;23.298;2022-07-05T10:29:09;6.95;;;6.22;;
13032;SDS011;6583;42.632;23.298;2022-07-05T10:31:37;6.63;;;6.03;;
13032;SDS011;6583;42.632;23.298;2022-07-05T10:34:04;6.93;;;6.22;;
13032;SDS011;6583;42.632;23.298;2022-07-05T10:36:34;6.65;;;5.90;;
13032;SDS011;6583;42.632;23.298;2022-07-05T10:39:03;6.57;;;5.97;;
13032;SDS011;6583;42.632;23.298;2022-07-05T10:41:31;8.13;;;6.40;;
13032;SDS011;6583;42.632;23.298;2022-07-05T10:43:58;8.85;;;6.03;;
13032;SDS011;6583;42.632;23.298;2022-07-05T10:46:35;6.35;;;5.85;;
13032;SDS011;6583;42.632;23.298;2022-07-05T10:49:13;6.20;;;5.70;;
13032;SDS011;6583;42.632;23.298;2022-07-05T10:51:42;6.40;;;5.80;;
13032;SDS011;6583;42.632;23.298;2022-07-05T10:54:09;6.35;;;5.78;;
13032;SDS011;6583;42.632;23.298;2022-07-05T10:56:35;8.30;;;6.05;;
13032;SDS011;6583;42.632;23.298;2022-07-05T10:59:04;7.93;;;6.00;;
13032;SDS011;6583;42.632;23.298;2022-07-05T11:01:33;6.22;;;5.63;;
13032;SDS011;6583;42.632;23.298;2022-07-05T11:07:00;6.22;;;5.63;;
13032;SDS011;6583;42.632;23.298;2022-07-05T11:09:28;6.53;;;5.97;;
13032;SDS011;6583;42.632;23.298;2022-07-05T11:12:04;6.32;;;5.60;;
13032;SDS011;6583;42.632;23.298;2022-07-05T11:14:33;6.47;;;5.88;;
13032;SDS011;6583;42.632;23.298;2022-07-05T11:17:19;6.47;;;5.88;;
13032;SDS011;6583;42.632;23.298;2022-07-05T11:19:58;6.60;;;6.03;;
13032;SDS011;6583;42.632;23.298;2022-07-05T11:22:27;7.88;;;6.53;;
13032;SDS011;6583;42.632;23.298;2022-07-05T11:24:55;6.60;;;6.10;;
13032;SDS011;6583;42.632;23.298;2022-07-05T11:27:22;7.13;;;6.13;;
13032;SDS011;6583;42.632;23.298;2022-07-05T11:29:49;6.95;;;6.35;;
13032;SDS011;6583;42.632;23.298;2022-07-05T11:32:17;6.38;;;5.78;;
13032;SDS011;6583;42.632;23.298;2022-07-05T11:34:46;6.18;;;5.57;;
13032;SDS011;6583;42.632;23.298;2022-07-05T11:37:17;6.65;;;6.05;;
13032;SDS011;6583;42.632;23.298;2022-07-05T11:40:25;7.43;;;6.20;;
13032;SDS011;6583;42.632;23.298;2022-07-05T11:42:53;6.63;;;6.03;;
13032;SDS011;6583;42.632;23.298;2022-07-05T11:45:19;6.90;;;6.20;;
13032;SDS011;6583;42.632;23.298;2022-07-05T11:47:46;6.95;;;6.35;;
13032;SDS011;6583;42.632;23.298;2022-07-05T11:50:13;6.50;;;5.90;;
13032;SDS011;6583;42.632;23.298;2022-07-05T11:52:40;6.65;;;6.05;;
13032;SDS011;6583;42.632;23.298;2022-07-05T11:55:09;7.18;;;5.80;;
13032;SDS011;6583;42.632;23.298;2022-07-05T11:57:37;6.63;;;5.95;;
13032;SDS011;6583;42.632;23.298;2022-07-05T12:00:14;7.15;;;6.38;;
13032;SDS011;6583;42.632;23.298;2022-07-05T12:02:52;6.68;;;6.00;;
13032;SDS011;6583;42.632;23.298;2022-07-05T12:05:18;6.43;;;5.75;;
13032;SDS011;6583;42.632;23.298;2022-07-05T12:07:48;6.05;;;5.55;;
13032;SDS011;6583;42.632;23.298;2022-07-05T12:10:17;7.05;;;6.43;;
13032;SDS011;6583;42.632;23.298;2022-07-05T12:13:16;6.68;;;6.07;;
13032;SDS011;6583;42.632;23.298;2022-07-05T12:15:43;6.20;;;5.78;;
13032;SDS011;6583;42.632;23.298;2022-07-05T12:18:11;7.03;;;6.32;;
13032;SDS011;6583;42.632;23.298;2022-07-05T12:20:39;7.50;;;6.03;;
13032;SDS011;6583;42.632;23.298;2022-07-05T12:23:06;6.03;;;5.53;;
13032;SDS011;6583;42.632;23.298;2022-07-05T12:25:34;6.22;;;5.72;;
13032;SDS011;6583;42.632;23.298;2022-07-05T12:28:02;7.63;;;5.82;;
13032;SDS011;6583;42.632;23.298;2022-07-05T12:30:32;6.68;;;5.88;;
13032;SDS011;6583;42.632;23.298;2022-07-05T12:32:59;6.63;;;6.03;;
13032;SDS011;6583;42.632;23.298;2022-07-05T12:35:30;6.30;;;5.68;;
13032;SDS011;6583;42.632;23.298;2022-07-05T12:38:02;6.65;;;6.10;;
13032;SDS011;6583;42.632;23.298;2022-07-05T12:40:30;6.90;;;6.20;;
13032;SDS011;6583;42.632;23.298;2022-07-05T12:43:02;7.03;;;6.32;;
13032;SDS011;6583;42.632;23.298;2022-07-05T12:45:30;6.57;;;5.97;;
13032;SDS011;6583;42.632;23.298;2022-07-05T12:47:57;7.82;;;6.07;;
13032;SDS011;6583;42.632;23.298;2022-07-05T12:50:26;6.78;;;6.10;;
13032;SDS011;6583;42.632;23.298;2022-07-05T12:52:56;6.78;;;6.20;;
13032;SDS011;6583;42.632;23.298;2022-07-05T12:55:24;6.97;;;5.50;;
13032;SDS011;6583;42.632;23.298;2022-07-05T12:58:10;7.47;;;6.45;;
13032;SDS011;6583;42.632;23.298;2022-07-05T13:00:37;6.68;;;6.07;;
13032;SDS011;6583;42.632;23.298;2022-07-05T13:03:03;6.65;;;5.95;;
13032;SDS011;6583;42.632;23.298;2022-07-05T13:05:30;6.97;;;6.38;;
13032;SDS011;6583;42.632;23.298;2022-07-05T13:07:57;6.85;;;6.20;;
13032;SDS011;6583;42.632;23.298;2022-07-05T13:10:24;6.53;;;5.90;;
13032;SDS011;6583;42.632;23.298;2022-07-05T13:12:53;6.68;;;6.18;;
13032;SDS011;6583;42.632;23.298;2022-07-05T13:15:21;6.90;;;6.20;;
13032;SDS011;6583;42.632;23.298;2022-07-05T13:17:47;6.70;;;6.10;;
13032;SDS011;6583;42.632;23.298;2022-07-05T13:20:14;7.13;;;6.32;;
13032;SDS011;6583;42.632;23.298;2022-07-05T13:22:42;7.32;;;6.63;;
13032;SDS011;6583;42.632;23.298;2022-07-05T13:25:09;7.28;;;6.57;;
13032;SDS011;6583;42.632;23.298;2022-07-05T13:27:37;6.43;;;5.88;;
13032;SDS011;6583;42.632;23.298;2022-07-05T13:30:04;7.07;;;6.47;;
13032;SDS011;6583;42.632;23.298;2022-07-05T13:32:32;6.57;;;5.95;;
13032;SDS011;6583;42.632;23.298;2022-07-05T13:34:59;6.97;;;6.40;;
13032;SDS011;6583;42.632;23.298;2022-07-05T13:37:26;6.45;;;5.85;;
13032;SDS011;6583;42.632;23.298;2022-07-05T13:39:52;7.75;;;6.28;;
13032;SDS011;6583;42.632;23.298;2022-07-05T13:42:19;7.13;;;6.45;;
13032;SDS011;6583;42.632;23.298;2022-07-05T13:44:46;6.65;;;6.05;;
13032;SDS011;6583;42.632;23.298;2022-07-05T13:47:12;6.80;;;6.20;;
13032;SDS011;6583;42.632;23.298;2022-07-05T13:49:40;7.75;;;6.35;;
13032;SDS011;6583;42.632;23.298;2022-07-05T13:52:07;6.55;;;5.95;;
13032;SDS011;6583;42.632;23.298;2022-07-05T13:54:34;7.68;;;6.57;;
13032;SDS011;6583;42.632;23.298;2022-07-05T13:57:01;7.03;;;6.40;;
13032;SDS011;6583;42.632;23.298;2022-07-05T13:59:28;6.88;;;6.10;;
13032;SDS011;6583;42.632;23.298;2022-07-05T14:01:54;6.72;;;6.07;;
13032;SDS011;6583;42.632;23.298;2022-07-05T14:04:22;6.82;;;6.25;;
13032;SDS011;6583;42.632;23.298;2022-07-05T14:06:51;7.10;;;6.40;;
13032;SDS011;6583;42.632;23.298;2022-07-05T14:09:18;7.88;;;6.88;;
13032;SDS011;6583;42.632;23.298;2022-07-05T14:11:44;7.20;;;6.50;;
13032;SDS011;6583;42.632;23.298;2022-07-05T14:14:11;7.28;;;6.68;;
13032;SDS011;6583;42.632;23.298;2022-07-05T14:16:38;7.30;;;6.30;;
13032;SDS011;6583;42.632;23.298;2022-07-05T14:19:04;7.30;;;6.60;;
13032;SDS011;6583;42.632;23.298;2022-07-05T14:21:31;7.50;;;6.50;;
13032;SDS011;6583;42.632;23.298;2022-07-05T14:23:59;7.25;;;6.65;;
13032;SDS011;6583;42.632;23.298;2022-07-05T14:26:26;7.32;;;6.63;;
13032;SDS011;6583;42.632;23.298;2022-07-05T14:28:53;8.05;;;7.00;;
13032;SDS011;6583;42.632;23.298;2022-07-05T14:31:20;7.38;;;6.60;;
13032;SDS011;6583;42.632;23.298;2022-07-05T14:33:47;7.32;;;6.65;;
13032;SDS011;6583;42.632;23.298;2022-07-05T14:36:13;7.05;;;6.45;;
13032;SDS011;6583;42.632;23.298;2022-07-05T14:38:42;6.75;;;6.15;;
13032;SDS011;6583;42.632;23.298;2022-07-05T14:41:10;7.57;;;6.90;;
13032;SDS011;6583;42.632;23.298;2022-07-05T14:43:38;6.97;;;6.28;;
13032;SDS011;6583;42.632;23.298;2022-07-05T14:46:04;6.57;;;6.03;;
13032;SDS011;6583;42.632;23.298;2022-07-05T14:48:33;6.90;;;6.25;;
13032;SDS011;6583;42.632;23.298;2022-07-05T14:50:59;8.18;;;6.43;;
13032;SDS011;6583;42.632;23.298;2022-07-05T14:53:26;6.78;;;5.97;;
13032;SDS011;6583;42.632;23.298;2022-07-05T14:55:52;6.90;;;6.18;;
13032;SDS011;6583;42.632;23.298;2022-07-05T14:58:21;8.48;;;7.07;;
13032;SDS011;6583;42.632;23.298;2022-07-05T15:00:48;6.75;;;6.15;;
13032;SDS011;6583;42.632;23.298;2022-07-05T15:03:14;7.55;;;6.85;;
13032;SDS011;6583;42.632;23.298;2022-07-05T15:05:41;7.00;;;6.40;;
13032;SDS011;6583;42.632;23.298;2022-07-05T15:08:08;10.68;;;7.47;;
13032;SDS011;6583;42.632;23.298;2022-07-05T15:10:34;7.00;;;6.40;;
13032;SDS011;6583;42.632;23.298;2022-07-05T15:13:01;7.97;;;7.28;;